ETD1VT OMAA-EGLL
Flight info
| Callsign | ETD1VT |
|---|---|
| Flight time | N/A |
| Altitude | 36000 |
| Route | BOSEV N563 ALPOB L768 ULADA Q143 MEDGO N697 HIL A788 HLF N316 PASAM L677 MENLI/N0489F380 L677 CVO L617 TANSA UL613 XANIS DCT DIMIS DCT VRANA DCT ELTIB DCT GIMIX DCT ERKIR DCT BABEG DCT LIRSU DCT ARCKY DCT BUB L608 LOGAN |
| Aircraft | A35K/H-SDE2E3GHIJ3J4J5LM1ORWXY/LB1D1 |
Departure
| Time | N/A |
|---|---|
| Airport | Zayed International Airport (OMAA) |
Arrival
| Time | 2026-05-03 23:55 |
|---|---|
| Airport | London Heathrow Airport (EGLL) |
| Time | Latitude | Longitude | Altitude | Speed | Heading |
|---|---|---|---|---|---|
| 2026-05-03 22:37 | 38.78249 | 21.96851 | 40216 ft | 467 kts | 321° |
| 2026-05-03 22:37 | 38.88312 | 21.86367 | 40213 ft | 466 kts | 321° |
| 2026-05-03 22:38 | 39.08092 | 21.65661 | 40213 ft | 450 kts | 322° |
| 2026-05-03 22:38 | 39.27461 | 21.45239 | 40206 ft | 449 kts | 322° |
| 2026-05-03 22:39 | 39.46637 | 21.24871 | 40190 ft | 449 kts | 322° |
| 2026-05-03 22:39 | 39.65868 | 21.04294 | 40162 ft | 448 kts | 322° |
| 2026-05-03 22:40 | 39.85101 | 20.83560 | 40157 ft | 449 kts | 322° |
| 2026-05-03 22:40 | 40.04341 | 20.62660 | 40158 ft | 450 kts | 322° |
| 2026-05-03 22:41 | 40.25367 | 20.45370 | 40159 ft | 447 kts | 330° |
| 2026-05-03 22:41 | 40.46780 | 20.28594 | 40162 ft | 446 kts | 330° |
| 2026-05-03 22:42 | 40.67927 | 20.11894 | 40127 ft | 446 kts | 330° |
| 2026-05-03 22:42 | 40.89183 | 19.94980 | 40123 ft | 446 kts | 330° |
| 2026-05-03 22:43 | 41.10409 | 19.77963 | 40124 ft | 446 kts | 330° |
| 2026-05-03 22:43 | 41.31619 | 19.60826 | 40128 ft | 445 kts | 330° |
| 2026-05-03 22:44 | 41.52752 | 19.43621 | 40124 ft | 445 kts | 330° |
| 2026-05-03 22:44 | 41.73884 | 19.26283 | 40132 ft | 445 kts | 330° |
| 2026-05-03 22:45 | 41.94893 | 19.08910 | 40137 ft | 445 kts | 330° |
| 2026-05-03 22:45 | 42.15965 | 18.91347 | 40135 ft | 445 kts | 330° |
| 2026-05-03 22:46 | 42.37039 | 18.73643 | 40126 ft | 445 kts | 329° |
| 2026-05-03 22:46 | 42.56616 | 18.57026 | 40146 ft | 439 kts | 322° |
| 2026-05-03 22:47 | 42.61487 | 18.52013 | 40153 ft | 442 kts | 331° |
| 2026-05-03 22:47 | 42.66879 | 18.47888 | 40141 ft | 446 kts | 332° |
| 2026-05-03 22:47 | 42.72879 | 18.43161 | 40309 ft | 446 kts | 331° |
| 2026-05-03 22:48 | 42.83494 | 18.34136 | 40152 ft | 451 kts | 330° |
| 2026-05-03 22:48 | 43.04713 | 18.15814 | 40149 ft | 450 kts | 330° |
| 2026-05-03 22:49 | 43.25878 | 17.97416 | 40103 ft | 451 kts | 330° |
| 2026-05-03 22:49 | 43.47026 | 17.78878 | 40118 ft | 451 kts | 330° |
| 2026-05-03 22:50 | 43.68232 | 17.60134 | 40154 ft | 449 kts | 328° |
| 2026-05-03 22:50 | 43.87385 | 17.38219 | 40168 ft | 453 kts | 318° |
| 2026-05-03 22:51 | 44.05773 | 17.14146 | 40174 ft | 455 kts | 318° |
| 2026-05-03 22:51 | 44.24173 | 16.89870 | 40157 ft | 456 kts | 317° |
| 2026-05-03 22:52 | 44.42623 | 16.65429 | 40144 ft | 457 kts | 317° |
| 2026-05-03 22:52 | 44.61029 | 16.40878 | 40136 ft | 457 kts | 317° |
| 2026-05-03 22:53 | 44.79387 | 16.16166 | 40124 ft | 456 kts | 317° |
| 2026-05-03 22:53 | 44.97672 | 15.91324 | 40110 ft | 455 kts | 316° |
| 2026-05-03 22:54 | 45.15849 | 15.66398 | 40097 ft | 456 kts | 316° |
| 2026-05-03 22:54 | 45.34073 | 15.41169 | 40100 ft | 458 kts | 318° |
| 2026-05-03 22:55 | 45.52154 | 15.15902 | 40101 ft | 458 kts | 317° |
| 2026-05-03 22:55 | 45.70334 | 14.90252 | 40104 ft | 459 kts | 317° |
| 2026-05-03 22:56 | 45.86419 | 14.67354 | 40115 ft | 460 kts | 317° |
| 2026-05-03 22:56 | 46.02586 | 14.44129 | 40127 ft | 460 kts | 317° |
| 2026-05-03 22:57 | 46.20679 | 14.17900 | 40124 ft | 461 kts | 316° |
| 2026-05-03 22:57 | 46.38722 | 13.91483 | 40101 ft | 462 kts | 316° |
| 2026-05-03 22:58 | 46.55488 | 13.66540 | 40103 ft | 463 kts | 313° |
| 2026-05-03 22:58 | 46.59737 | 13.59492 | 40099 ft | 463 kts | 312° |
| 2026-05-03 22:59 | 46.75162 | 13.33932 | 40109 ft | 463 kts | 313° |
| 2026-05-03 22:59 | 46.92088 | 13.05845 | 40095 ft | 463 kts | 312° |
| 2026-05-03 23:00 | 47.09048 | 12.77400 | 40080 ft | 464 kts | 312° |
| 2026-05-03 23:00 | 47.25979 | 12.48701 | 40061 ft | 465 kts | 312° |
| 2026-05-03 23:01 | 47.37733 | 12.28600 | 40047 ft | 466 kts | 311° |
| 2026-05-03 23:01 | 47.44067 | 12.17703 | 40045 ft | 466 kts | 311° |
| 2026-05-03 23:02 | 47.54985 | 11.98804 | 40041 ft | 467 kts | 310° |
| 2026-05-03 23:02 | 47.68971 | 11.70646 | 40045 ft | 469 kts | 307° |
| 2026-05-03 23:03 | 47.80696 | 11.47090 | 40045 ft | 470 kts | 307° |
| 2026-05-03 23:03 | 47.96113 | 11.15779 | 40046 ft | 471 kts | 307° |
| 2026-05-03 23:04 | 48.09298 | 10.88712 | 40050 ft | 471 kts | 306° |
| 2026-05-03 23:04 | 48.18325 | 10.70148 | 40213 ft | 463 kts | 307° |
| 2026-05-03 23:05 | 48.22131 | 10.62239 | 40091 ft | 473 kts | 306° |
| 2026-05-03 23:05 | 48.28346 | 10.49138 | 40049 ft | 472 kts | 306° |
| 2026-05-03 23:06 | 48.38188 | 10.28489 | 40021 ft | 470 kts | 310° |
| 2026-05-03 23:06 | 48.40308 | 10.24795 | 40270 ft | 466 kts | 308° |
| 2026-05-03 23:06 | 48.42254 | 10.20859 | 40283 ft | 470 kts | 304° |
| 2026-05-03 23:06 | 48.44092 | 10.16765 | 40078 ft | 475 kts | 303° |
| 2026-05-03 23:07 | 48.45888 | 10.12653 | 40056 ft | 474 kts | 303° |
| 2026-05-03 23:07 | 48.52374 | 9.98325 | 40054 ft | 474 kts | 305° |
| 2026-05-03 23:08 | 48.59993 | 9.82042 | 40050 ft | 475 kts | 305° |
| 2026-05-03 23:08 | 48.67613 | 9.65661 | 40047 ft | 475 kts | 304° |
| 2026-05-03 23:09 | 48.75523 | 9.49763 | 40046 ft | 476 kts | 307° |
| 2026-05-03 23:09 | 48.83532 | 9.33724 | 40047 ft | 476 kts | 306° |
| 2026-05-03 23:10 | 48.91466 | 9.17620 | 40041 ft | 476 kts | 306° |
| 2026-05-03 23:10 | 48.99387 | 9.01453 | 40032 ft | 476 kts | 305° |
| 2026-05-03 23:11 | 49.08725 | 8.82268 | 40024 ft | 476 kts | 305° |
| 2026-05-03 23:11 | 49.16294 | 8.66617 | 40023 ft | 476 kts | 304° |
| 2026-05-03 23:12 | 49.24100 | 8.50380 | 40018 ft | 477 kts | 304° |
| 2026-05-03 23:12 | 49.31985 | 8.33878 | 40016 ft | 477 kts | 304° |
| 2026-05-03 23:13 | 49.39749 | 8.17527 | 40012 ft | 477 kts | 304° |
| 2026-05-03 23:13 | 49.48114 | 7.99797 | 40004 ft | 477 kts | 304° |
| 2026-05-03 23:14 | 49.61805 | 7.70522 | 39999 ft | 476 kts | 303° |
| 2026-05-03 23:14 | 49.71369 | 7.49885 | 40006 ft | 475 kts | 303° |
| 2026-05-03 23:15 | 49.85613 | 7.18837 | 40022 ft | 474 kts | 303° |
| 2026-05-03 23:15 | 49.98836 | 6.89693 | 39993 ft | 474 kts | 302° |
| 2026-05-03 23:16 | 50.12833 | 6.58483 | 39983 ft | 473 kts | 302° |
| 2026-05-03 23:16 | 50.21435 | 6.37548 | 39970 ft | 471 kts | 296° |
| 2026-05-03 23:17 | 50.29775 | 6.13677 | 39967 ft | 471 kts | 296° |
| 2026-05-03 23:17 | 50.36654 | 5.95760 | 39969 ft | 473 kts | 299° |
| 2026-05-03 23:18 | 50.43538 | 5.78123 | 39967 ft | 473 kts | 298° |
| 2026-05-03 23:18 | 50.50324 | 5.60421 | 39968 ft | 474 kts | 298° |
| 2026-05-03 23:19 | 50.57077 | 5.42689 | 39966 ft | 475 kts | 298° |
| 2026-05-03 23:19 | 50.63702 | 5.25182 | 39965 ft | 475 kts | 297° |
| 2026-05-03 23:20 | 50.70435 | 5.07267 | 39967 ft | 476 kts | 297° |
| 2026-05-03 23:20 | 50.79970 | 4.81681 | 39946 ft | 476 kts | 297° |
| 2026-05-03 23:21 | 50.88719 | 4.58198 | 40056 ft | 474 kts | 300° |
| 2026-05-03 23:21 | 50.92735 | 4.47657 | 39969 ft | 483 kts | 297° |
| 2026-05-03 23:22 | 51.01266 | 4.25051 | 39945 ft | 484 kts | 297° |
| 2026-05-03 23:22 | 51.08238 | 4.06729 | 39950 ft | 484 kts | 297° |
| 2026-05-03 23:23 | 51.12610 | 3.95157 | 39835 ft | 484 kts | 297° |
| 2026-05-03 23:23 | 51.14341 | 3.90562 | 39603 ft | 484 kts | 297° |
| 2026-05-03 23:23 | 51.16069 | 3.85965 | 39368 ft | 485 kts | 297° |
| 2026-05-03 23:24 | 51.17806 | 3.81338 | 39171 ft | 485 kts | 297° |
| 2026-05-03 23:24 | 51.19516 | 3.76773 | 38950 ft | 486 kts | 297° |
| 2026-05-03 23:24 | 51.21247 | 3.72144 | 38720 ft | 486 kts | 296° |
| 2026-05-03 23:24 | 51.22996 | 3.67458 | 38470 ft | 486 kts | 296° |
| 2026-05-03 23:25 | 51.24727 | 3.62812 | 38201 ft | 486 kts | 296° |
| 2026-05-03 23:25 | 51.26427 | 3.58242 | 37918 ft | 485 kts | 296° |
| 2026-05-03 23:25 | 51.28150 | 3.53598 | 37643 ft | 485 kts | 296° |
| 2026-05-03 23:25 | 51.29867 | 3.48960 | 37402 ft | 484 kts | 296° |
| 2026-05-03 23:26 | 51.31586 | 3.44309 | 37134 ft | 483 kts | 296° |
| 2026-05-03 23:26 | 51.33267 | 3.39752 | 36870 ft | 483 kts | 296° |
| 2026-05-03 23:26 | 51.34841 | 3.34949 | 36617 ft | 478 kts | 289° |
| 2026-05-03 23:26 | 51.36118 | 3.30047 | 36363 ft | 476 kts | 287° |
| 2026-05-03 23:27 | 51.37314 | 3.25185 | 36117 ft | 475 kts | 286° |
| 2026-05-03 23:27 | 51.38461 | 3.20373 | 35873 ft | 474 kts | 286° |
| 2026-05-03 23:27 | 51.39623 | 3.15428 | 35636 ft | 474 kts | 286° |
| 2026-05-03 23:27 | 51.40774 | 3.10499 | 35388 ft | 473 kts | 285° |
| 2026-05-03 23:28 | 51.41933 | 3.05553 | 35140 ft | 473 kts | 286° |
| 2026-05-03 23:28 | 51.43088 | 3.00616 | 34910 ft | 472 kts | 285° |
| 2026-05-03 23:28 | 51.44236 | 2.95700 | 34681 ft | 472 kts | 285° |
| 2026-05-03 23:28 | 51.45390 | 2.90756 | 34442 ft | 471 kts | 285° |
| 2026-05-03 23:29 | 51.46538 | 2.85832 | 34205 ft | 471 kts | 285° |
| 2026-05-03 23:29 | 51.47685 | 2.80902 | 33979 ft | 471 kts | 285° |
| 2026-05-03 23:29 | 51.48827 | 2.75986 | 33704 ft | 470 kts | 285° |
| 2026-05-03 23:29 | 51.49953 | 2.71130 | 33432 ft | 471 kts | 285° |
| 2026-05-03 23:30 | 51.51094 | 2.66193 | 33168 ft | 471 kts | 285° |
| 2026-05-03 23:30 | 51.52234 | 2.61249 | 32896 ft | 472 kts | 285° |
| 2026-05-03 23:30 | 51.53375 | 2.56292 | 32643 ft | 473 kts | 285° |
| 2026-05-03 23:30 | 51.54517 | 2.51318 | 32376 ft | 474 kts | 285° |
| 2026-05-03 23:31 | 51.55660 | 2.46344 | 32121 ft | 475 kts | 285° |
| 2026-05-03 23:31 | 51.56803 | 2.41358 | 31858 ft | 476 kts | 285° |
| 2026-05-03 23:31 | 51.57942 | 2.36364 | 31608 ft | 476 kts | 285° |
| 2026-05-03 23:31 | 51.59081 | 2.31361 | 31352 ft | 477 kts | 285° |
| 2026-05-03 23:32 | 51.60224 | 2.26328 | 31104 ft | 478 kts | 285° |
| 2026-05-03 23:32 | 51.61360 | 2.21310 | 30857 ft | 479 kts | 285° |
| 2026-05-03 23:32 | 51.62499 | 2.16268 | 30608 ft | 480 kts | 286° |
| 2026-05-03 23:32 | 51.63622 | 2.11285 | 30375 ft | 480 kts | 286° |
| 2026-05-03 23:33 | 51.64767 | 2.06219 | 30127 ft | 481 kts | 286° |
| 2026-05-03 23:33 | 51.65901 | 2.01159 | 29855 ft | 481 kts | 286° |
| 2026-05-03 23:33 | 51.67037 | 1.96072 | 29595 ft | 481 kts | 286° |
| 2026-05-03 23:33 | 51.68165 | 1.91013 | 29024 ft | 479 kts | 286° |
| 2026-05-03 23:34 | 51.69291 | 1.85956 | 28233 ft | 476 kts | 286° |
| 2026-05-03 23:34 | 51.70402 | 1.80953 | 27558 ft | 472 kts | 286° |
| 2026-05-03 23:34 | 51.71504 | 1.75982 | 26885 ft | 469 kts | 286° |
| 2026-05-03 23:34 | 51.72598 | 1.71032 | 26218 ft | 465 kts | 286° |
| 2026-05-03 23:35 | 51.73674 | 1.66126 | 25547 ft | 462 kts | 286° |
| 2026-05-03 23:35 | 51.74430 | 1.61155 | 24897 ft | 448 kts | 274° |
| 2026-05-03 23:35 | 51.74473 | 1.56303 | 24263 ft | 434 kts | 263° |
| 2026-05-03 23:35 | 51.74185 | 1.51461 | 23619 ft | 433 kts | 262° |
| 2026-05-03 23:36 | 51.73859 | 1.46636 | 22892 ft | 431 kts | 262° |
| 2026-05-03 23:36 | 51.73538 | 1.41854 | 22233 ft | 428 kts | 262° |
| 2026-05-03 23:36 | 51.73222 | 1.37098 | 21595 ft | 425 kts | 262° |
| 2026-05-03 23:36 | 51.72909 | 1.32378 | 20958 ft | 422 kts | 262° |
| 2026-05-03 23:37 | 51.72595 | 1.27657 | 20324 ft | 422 kts | 262° |
| 2026-05-03 23:37 | 51.72283 | 1.22974 | 19692 ft | 419 kts | 262° |
| 2026-05-03 23:37 | 51.71972 | 1.18312 | 19064 ft | 416 kts | 262° |
| 2026-05-03 23:37 | 51.71660 | 1.13681 | 18446 ft | 413 kts | 262° |
| 2026-05-03 23:38 | 51.71350 | 1.09089 | 17767 ft | 410 kts | 262° |
| 2026-05-03 23:38 | 51.71041 | 1.04541 | 17148 ft | 406 kts | 262° |
| 2026-05-03 23:38 | 51.70735 | 1.00044 | 16541 ft | 401 kts | 262° |
| 2026-05-03 23:38 | 51.70429 | 0.95595 | 15945 ft | 397 kts | 262° |
| 2026-05-03 23:39 | 51.70132 | 0.91206 | 15564 ft | 392 kts | 262° |
| 2026-05-03 23:39 | 51.69828 | 0.86839 | 15243 ft | 392 kts | 262° |
| 2026-05-03 23:39 | 51.69524 | 0.82512 | 14999 ft | 382 kts | 262° |
| 2026-05-03 23:39 | 51.69233 | 0.78380 | 14765 ft | 369 kts | 262° |
| 2026-05-03 23:40 | 51.68947 | 0.74333 | 14529 ft | 358 kts | 262° |
| 2026-05-03 23:40 | 51.68669 | 0.70414 | 14291 ft | 342 kts | 262° |
| 2026-05-03 23:40 | 51.68409 | 0.66729 | 13933 ft | 320 kts | 262° |
| 2026-05-03 23:40 | 51.68166 | 0.63274 | 13458 ft | 303 kts | 262° |
| 2026-05-03 23:41 | 51.67928 | 0.59996 | 13163 ft | 287 kts | 261° |
| 2026-05-03 23:41 | 51.67692 | 0.56780 | 12896 ft | 290 kts | 261° |
| 2026-05-03 23:41 | 51.67455 | 0.53549 | 12679 ft | 293 kts | 261° |
| 2026-05-03 23:41 | 51.67219 | 0.50309 | 12445 ft | 289 kts | 262° |
| 2026-05-03 23:42 | 51.66985 | 0.47094 | 12137 ft | 289 kts | 262° |
| 2026-05-03 23:42 | 51.66752 | 0.43884 | 11727 ft | 287 kts | 262° |
| 2026-05-03 23:42 | 51.66516 | 0.40693 | 11434 ft | 286 kts | 262° |
| 2026-05-03 23:42 | 51.66279 | 0.37517 | 11166 ft | 286 kts | 262° |
| 2026-05-03 23:43 | 51.66043 | 0.34338 | 10906 ft | 286 kts | 262° |
| 2026-05-03 23:43 | 51.65807 | 0.31175 | 10642 ft | 284 kts | 262° |
| 2026-05-03 23:43 | 51.65571 | 0.28016 | 10383 ft | 283 kts | 262° |
| 2026-05-03 23:43 | 51.65335 | 0.24877 | 10120 ft | 282 kts | 262° |
| 2026-05-03 23:44 | 51.65100 | 0.21747 | 9865 ft | 281 kts | 262° |
| 2026-05-03 23:44 | 51.64863 | 0.18614 | 9589 ft | 281 kts | 262° |
| 2026-05-03 23:44 | 51.64658 | 0.15491 | 9308 ft | 280 kts | 266° |
| 2026-05-03 23:44 | 51.64665 | 0.12646 | 9097 ft | 280 kts | 271° |
| 2026-05-03 23:45 | 51.64759 | 0.09518 | 8845 ft | 279 kts | 271° |
| 2026-05-03 23:45 | 51.64859 | 0.06395 | 8582 ft | 278 kts | 271° |
| 2026-05-03 23:45 | 51.64955 | 0.03284 | 8332 ft | 277 kts | 271° |
| 2026-05-03 23:45 | 51.65048 | 0.00190 | 8087 ft | 276 kts | 271° |
| 2026-05-03 23:46 | 51.65139 | -0.02899 | 7824 ft | 275 kts | 271° |
| 2026-05-03 23:46 | 51.65228 | -0.05977 | 7595 ft | 274 kts | 271° |
| 2026-05-03 23:46 | 51.65315 | -0.09040 | 7368 ft | 271 kts | 271° |
| 2026-05-03 23:46 | 51.65290 | -0.11586 | 7157 ft | 257 kts | 261° |
| 2026-05-03 23:47 | 51.64744 | -0.14231 | 6902 ft | 246 kts | 238° |
| 2026-05-03 23:47 | 51.63620 | -0.16285 | 6757 ft | 245 kts | 218° |
| 2026-05-03 23:47 | 51.62242 | -0.17880 | 6584 ft | 245 kts | 214° |
| 2026-05-03 23:47 | 51.60808 | -0.19420 | 6486 ft | 246 kts | 213° |
| 2026-05-03 23:48 | 51.59391 | -0.20815 | 6343 ft | 237 kts | 204° |
| 2026-05-03 23:48 | 51.57794 | -0.21152 | 6115 ft | 229 kts | 169° |
| 2026-05-03 23:48 | 51.56473 | -0.19934 | 5824 ft | 221 kts | 136° |
| 2026-05-03 23:48 | 51.55522 | -0.18016 | 5315 ft | 217 kts | 127° |
| 2026-05-03 23:49 | 51.54655 | -0.16061 | 4818 ft | 213 kts | 127° |
| 2026-05-03 23:49 | 51.53596 | -0.14463 | 4384 ft | 210 kts | 154° |
| 2026-05-03 23:49 | 51.52186 | -0.14050 | 4020 ft | 207 kts | 183° |
| 2026-05-03 23:49 | 51.50764 | -0.14276 | 3565 ft | 205 kts | 188° |
| 2026-05-03 23:50 | 51.49362 | -0.14689 | 3211 ft | 204 kts | 194° |
| 2026-05-03 23:50 | 51.48515 | -0.15316 | 3048 ft | 200 kts | 218° |
| 2026-05-03 23:50 | 51.47784 | -0.17808 | 2838 ft | 185 kts | 270° |
| 2026-05-03 23:50 | 51.47903 | -0.19791 | 2719 ft | 175 kts | 276° |
| 2026-05-03 23:51 | 51.47985 | -0.21725 | 2462 ft | 171 kts | 269° |
| 2026-05-03 23:51 | 51.47952 | -0.23573 | 2359 ft | 161 kts | 268° |
| 2026-05-03 23:51 | 51.47924 | -0.25328 | 2196 ft | 154 kts | 268° |
| 2026-05-03 23:51 | 51.47879 | -0.27012 | 2032 ft | 148 kts | 266° |
| 2026-05-03 23:52 | 51.47837 | -0.28653 | 1862 ft | 145 kts | 268° |
| 2026-05-03 23:52 | 51.47815 | -0.30226 | 1604 ft | 141 kts | 269° |
| 2026-05-03 23:52 | 51.47812 | -0.31770 | 1391 ft | 137 kts | 270° |
| 2026-05-03 23:52 | 51.47817 | -0.33302 | 1185 ft | 137 kts | 270° |
| 2026-05-03 23:53 | 51.47821 | -0.34830 | 1046 ft | 137 kts | 271° |
| 2026-05-03 23:53 | 51.47800 | -0.36370 | 935 ft | 139 kts | 267° |
| 2026-05-03 23:53 | 51.47790 | -0.37913 | 756 ft | 138 kts | 268° |
| 2026-05-03 23:53 | 51.47797 | -0.39458 | 558 ft | 138 kts | 269° |
| 2026-05-03 23:54 | 51.47773 | -0.40986 | 376 ft | 136 kts | 268° |
| 2026-05-03 23:54 | 51.47766 | -0.42504 | 233 ft | 137 kts | 270° |
| 2026-05-03 23:54 | 51.47761 | -0.44031 | 95 ft | 134 kts | 269° |
| 2026-05-03 23:54 | 51.47762 | -0.45297 | 93 ft | 79 kts | 269° |
| 2026-05-03 23:55 | 51.47742 | -0.45790 | 91 ft | 31 kts | 250° |
| 2026-05-03 23:55 | 51.47661 | -0.45953 | 96 ft | 19 kts | 220° |